Time;durP1;ratioP1;P1;durP2;ratioP2;P2;SDS_P1;SDS_P2;PMS_P1;PMS_P2;Temp;Humidity;BMP_temperature;BMP_pressure;BME280_temperature;BME280_humidity;BME280_pressure;Samples;Min_cycle;Max_cycle;Signal;HPM_P1;HPM_P2
2023/08/15 00:00:10;;;;;;;11.35;3.53;;;;;;;;;;2082817;28;20026;-79
2023/08/15 00:01:29;;;;;;;8.52;2.97;;;;;;;;;;2082389;28;20022;-80
2023/08/15 00:02:48;;;;;;;10.57;3.42;;;;;;;;;;2080532;28;20105;-81
2023/08/15 00:04:07;;;;;;;3.95;2.45;;;;;;;;;;2082355;28;20021;-80
2023/08/15 00:05:26;;;;;;;4.43;2.50;;;;;;;;;;2081073;28;20029;-81
2023/08/15 00:06:45;;;;;;;5.85;2.90;;;;;;;;;;2082003;28;20101;-80
2023/08/15 00:08:05;;;;;;;5.43;2.53;;;;;;;;;;2079785;28;20029;-79
2023/08/15 00:09:25;;;;;;;4.07;2.40;;;;;;;;;;2079193;28;20116;-81
2023/08/15 00:10:46;;;;;;;3.53;2.38;;;;;;;;;;2080322;28;20104;-81
2023/08/15 00:12:06;;;;;;;6.25;3.28;;;;;;;;;;2078991;28;20064;-81
2023/08/15 00:13:27;;;;;;;6.57;3.25;;;;;;;;;;2076004;28;20046;-80
2023/08/15 00:14:46;;;;;;;4.20;2.50;;;;;;;;;;2082556;28;20025;-80
2023/08/15 00:16:05;;;;;;;6.43;3.08;;;;;;;;;;2082347;28;20025;-79
2023/08/15 00:17:24;;;;;;;8.15;2.65;;;;;;;;;;2082445;28;20038;-80
2023/08/15 00:18:44;;;;;;;4.03;2.83;;;;;;;;;;2081400;28;20030;-80
2023/08/15 00:20:05;;;;;;;6.25;2.38;;;;;;;;;;2083724;28;20029;-80
2023/08/15 00:21:23;;;;;;;5.35;3.33;;;;;;;;;;2073504;28;20042;-79
2023/08/15 00:22:43;;;;;;;8.00;3.08;;;;;;;;;;2079776;28;20025;-80
2023/08/15 00:24:03;;;;;;;6.68;2.90;;;;;;;;;;2081558;28;20450;-79
2023/08/15 00:25:24;;;;;;;4.35;3.33;;;;;;;;;;2079258;28;20069;-79
2023/08/15 00:26:43;;;;;;;3.55;2.55;;;;;;;;;;2080290;28;20022;-80
2023/08/15 00:28:02;;;;;;;5.53;2.67;;;;;;;;;;2081166;28;20446;-80
2023/08/15 00:29:22;;;;;;;5.88;2.92;;;;;;;;;;2080138;28;20470;-80
2023/08/15 00:30:42;;;;;;;7.07;2.92;;;;;;;;;;2082647;28;20046;-80
2023/08/15 00:32:01;;;;;;;4.00;2.78;;;;;;;;;;2082726;28;20022;-82
2023/08/15 00:33:20;;;;;;;4.82;2.60;;;;;;;;;;2078945;28;20041;-80
2023/08/15 00:34:43;;;;;;;6.82;2.97;;;;;;;;;;2077320;28;20033;-79
2023/08/15 00:36:03;;;;;;;5.05;3.10;;;;;;;;;;2080298;28;20029;-78
2023/08/15 00:37:22;;;;;;;5.68;2.60;;;;;;;;;;2079089;28;20025;-79
2023/08/15 00:38:41;;;;;;;5.78;2.58;;;;;;;;;;2080724;28;20053;-80
2023/08/15 00:40:00;;;;;;;4.85;3.20;;;;;;;;;;2076447;28;20546;-79
2023/08/15 00:41:20;;;;;;;5.93;3.30;;;;;;;;;;2082778;28;20035;-80
2023/08/15 00:42:39;;;;;;;4.03;2.63;;;;;;;;;;2083476;28;20033;-80
2023/08/15 00:43:58;;;;;;;8.45;2.67;;;;;;;;;;2079969;28;20025;-80
2023/08/15 00:45:17;;;;;;;6.05;3.00;;;;;;;;;;2080261;28;20034;-80
2023/08/15 00:46:36;;;;;;;9.77;3.40;;;;;;;;;;2079754;28;20460;-79
2023/08/15 00:47:55;;;;;;;7.18;3.10;;;;;;;;;;2080661;28;20045;-77
2023/08/15 00:49:14;;;;;;;5.45;3.20;;;;;;;;;;2081255;28;20566;-80
2023/08/15 00:50:33;;;;;;;9.23;3.25;;;;;;;;;;2079357;28;20034;-80
2023/08/15 00:51:53;;;;;;;8.27;3.00;;;;;;;;;;2079357;28;20560;-79
2023/08/15 00:53:12;;;;;;;3.97;3.00;;;;;;;;;;2082045;28;20018;-79
2023/08/15 00:54:32;;;;;;;5.78;3.30;;;;;;;;;;2083340;28;20565;-79
2023/08/15 00:55:51;;;;;;;3.05;2.80;;;;;;;;;;2082162;28;20026;-80
2023/08/15 00:57:11;;;;;;;6.28;2.88;;;;;;;;;;2079697;28;20538;-78
2023/08/15 00:58:31;;;;;;;5.90;3.28;;;;;;;;;;2082490;28;20042;-79
2023/08/15 00:59:50;;;;;;;7.10;2.80;;;;;;;;;;2078200;28;20538;-78
2023/08/15 01:01:14;;;;;;;5.78;3.10;;;;;;;;;;2080841;28;20065;-79
2023/08/15 01:02:35;;;;;;;5.28;2.92;;;;;;;;;;2076325;28;20033;-79
2023/08/15 01:03:54;;;;;;;5.32;3.35;;;;;;;;;;2076510;28;20038;-79
2023/08/15 01:05:18;;;;;;;5.35;2.95;;;;;;;;;;2078051;28;20033;-79
2023/08/15 01:06:38;;;;;;;6.72;2.88;;;;;;;;;;2071272;28;20038;-80
2023/08/15 01:07:57;;;;;;;6.85;3.17;;;;;;;;;;2077783;28;20049;-80
2023/08/15 01:09:16;;;;;;;7.57;3.85;;;;;;;;;;2081098;28;20038;-78
2023/08/15 01:10:35;;;;;;;7.55;3.03;;;;;;;;;;2080712;28;20092;-79
2023/08/15 01:12:02;;;;;;;6.85;2.90;;;;;;;;;;2078336;28;20045;-79
2023/08/15 01:13:30;;;;;;;7.20;3.15;;;;;;;;;;2080477;28;20029;-80
2023/08/15 01:15:07;;;;;;;7.75;3.78;;;;;;;;;;2082006;28;20029;-80
2023/08/15 01:16:37;;;;;;;5.57;3.47;;;;;;;;;;2081511;28;20034;-78
2023/08/15 01:18:12;;;;;;;3.78;3.20;;;;;;;;;;2081250;28;20026;-80
2023/08/15 01:19:36;;;;;;;4.70;2.95;;;;;;;;;;2082144;28;20033;-79
2023/08/15 01:20:56;;;;;;;5.05;2.60;;;;;;;;;;2078375;28;20025;-80
2023/08/15 01:22:23;;;;;;;5.22;3.20;;;;;;;;;;2081742;28;20037;-79
2023/08/15 01:23:45;;;;;;;4.38;3.13;;;;;;;;;;2080662;28;20021;-80
2023/08/15 01:25:04;;;;;;;7.10;3.22;;;;;;;;;;2081786;28;20034;-78
2023/08/15 01:26:23;;;;;;;6.28;3.50;;;;;;;;;;2081939;28;20498;-78
2023/08/15 01:27:42;;;;;;;5.50;3.17;;;;;;;;;;2081257;28;20021;-79
2023/08/15 01:29:01;;;;;;;5.55;3.15;;;;;;;;;;2080732;28;20029;-79
2023/08/15 01:30:21;;;;;;;6.93;4.20;;;;;;;;;;2075365;28;20029;-80
2023/08/15 01:31:44;;;;;;;6.93;3.53;;;;;;;;;;2081053;28;20041;-79
2023/08/15 01:33:03;;;;;;;7.90;3.33;;;;;;;;;;2080264;28;20029;-80
2023/08/15 01:34:24;;;;;;;4.45;3.45;;;;;;;;;;2079577;28;20486;-80
2023/08/15 01:35:45;;;;;;;10.13;3.28;;;;;;;;;;2080160;28;20029;-80
2023/08/15 01:37:09;;;;;;;5.85;3.05;;;;;;;;;;2082190;28;20037;-79
2023/08/15 01:38:28;;;;;;;6.93;3.35;;;;;;;;;;2081236;28;20026;-80
2023/08/15 01:39:50;;;;;;;4.93;3.25;;;;;;;;;;2080480;28;20025;-79
2023/08/15 01:41:13;;;;;;;8.13;3.42;;;;;;;;;;2082449;28;20033;-79
2023/08/15 01:42:32;;;;;;;5.82;3.00;;;;;;;;;;2080308;28;20065;-80
2023/08/15 01:43:53;;;;;;;7.00;3.47;;;;;;;;;;2080772;28;20029;-79
2023/08/15 01:45:12;;;;;;;9.93;3.13;;;;;;;;;;2076676;28;20486;-79
2023/08/15 01:46:31;;;;;;;3.97;2.92;;;;;;;;;;2080752;28;20033;-79
2023/08/15 01:47:51;;;;;;;7.38;3.50;;;;;;;;;;2081264;28;20400;-80
2023/08/15 01:49:10;;;;;;;6.18;2.90;;;;;;;;;;2077512;28;20124;-79
2023/08/15 01:50:29;;;;;;;4.03;2.70;;;;;;;;;;2080986;28;20105;-79
2023/08/15 01:51:48;;;;;;;6.40;3.08;;;;;;;;;;2081710;28;20030;-79
2023/08/15 01:53:07;;;;;;;5.85;3.38;;;;;;;;;;2082319;28;20025;-79
2023/08/15 01:54:27;;;;;;;5.93;3.42;;;;;;;;;;2081924;28;20433;-79
2023/08/15 01:55:46;;;;;;;6.18;2.97;;;;;;;;;;2079620;28;20080;-79
2023/08/15 01:57:05;;;;;;;8.25;3.45;;;;;;;;;;2083060;28;20029;-79
2023/08/15 01:58:24;;;;;;;6.00;3.45;;;;;;;;;;2089344;28;20559;-79
2023/08/15 01:59:43;;;;;;;6.97;3.15;;;;;;;;;;2088558;28;20029;-79
2023/08/15 02:01:03;;;;;;;4.85;3.20;;;;;;;;;;2090319;28;20037;-79
2023/08/15 02:02:22;;;;;;;9.10;3.78;;;;;;;;;;2090362;28;20037;-78
2023/08/15 02:03:40;;;;;;;5.97;3.13;;;;;;;;;;2090458;28;20029;-79
2023/08/15 02:05:02;;;;;;;5.65;3.08;;;;;;;;;;2090683;28;20033;-80
2023/08/15 02:06:21;;;;;;;8.13;3.72;;;;;;;;;;2089748;28;20032;-79
2023/08/15 02:07:40;;;;;;;4.28;3.13;;;;;;;;;;2089011;28;20060;-79
2023/08/15 02:08:59;;;;;;;3.85;3.00;;;;;;;;;;2089007;28;20482;-80
2023/08/15 02:10:17;;;;;;;3.50;3.20;;;;;;;;;;2088838;28;20509;-79
2023/08/15 02:11:36;;;;;;;8.00;3.40;;;;;;;;;;2088500;28;20033;-79
2023/08/15 02:12:55;;;;;;;6.93;3.30;;;;;;;;;;2088499;28;20025;-79
2023/08/15 02:14:14;;;;;;;6.47;3.30;;;;;;;;;;2088614;28;20025;-79
2023/08/15 02:15:33;;;;;;;5.30;3.22;;;;;;;;;;2090932;28;20079;-79
2023/08/15 02:16:52;;;;;;;6.60;3.38;;;;;;;;;;2089166;28;20024;-79
2023/08/15 02:18:12;;;;;;;4.88;2.67;;;;;;;;;;2085683;28;20461;-79
2023/08/15 02:19:31;;;;;;;6.00;3.08;;;;;;;;;;2088039;28;20112;-79
2023/08/15 02:20:49;;;;;;;4.65;3.05;;;;;;;;;;2090121;28;20025;-79
2023/08/15 02:22:08;;;;;;;6.18;3.00;;;;;;;;;;2089963;28;20025;-79
2023/08/15 02:23:27;;;;;;;7.72;3.78;;;;;;;;;;2087818;28;20025;-79
2023/08/15 02:24:46;;;;;;;10.57;3.63;;;;;;;;;;2089160;28;20465;-80
2023/08/15 02:26:05;;;;;;;6.70;3.15;;;;;;;;;;2088458;28;20029;-79
2023/08/15 02:27:24;;;;;;;7.18;3.05;;;;;;;;;;2092332;28;20033;-79
2023/08/15 02:28:43;;;;;;;5.07;3.05;;;;;;;;;;2089993;28;20017;-79
2023/08/15 02:30:04;;;;;;;4.45;3.05;;;;;;;;;;2088805;28;20033;-78
2023/08/15 02:31:26;;;;;;;6.28;3.15;;;;;;;;;;2089081;28;20017;-79
2023/08/15 02:32:45;;;;;;;7.15;3.42;;;;;;;;;;2089393;28;20037;-80
2023/08/15 02:34:04;;;;;;;8.95;3.17;;;;;;;;;;2089776;28;21470;-79
2023/08/15 02:35:23;;;;;;;5.32;3.28;;;;;;;;;;2089042;28;20737;-80
2023/08/15 02:36:43;;;;;;;4.20;2.90;;;;;;;;;;2088841;28;20104;-79
2023/08/15 02:38:02;;;;;;;7.00;3.15;;;;;;;;;;2088878;28;20057;-80
2023/08/15 02:39:21;;;;;;;6.57;3.20;;;;;;;;;;2089651;28;20037;-79
2023/08/15 02:40:40;;;;;;;6.43;3.53;;;;;;;;;;2089198;28;20022;-80
2023/08/15 02:41:59;;;;;;;5.40;3.30;;;;;;;;;;2089563;28;20025;-79
2023/08/15 02:43:18;;;;;;;5.88;3.28;;;;;;;;;;2090235;28;20035;-79
2023/08/15 02:44:37;;;;;;;7.85;3.13;;;;;;;;;;2087318;28;20386;-80
2023/08/15 02:45:56;;;;;;;5.05;3.53;;;;;;;;;;2087225;28;20032;-79
2023/08/15 02:47:15;;;;;;;6.38;2.90;;;;;;;;;;2089785;28;20021;-79
2023/08/15 02:48:34;;;;;;;7.32;3.05;;;;;;;;;;2090324;28;20033;-78
2023/08/15 02:49:53;;;;;;;8.13;3.33;;;;;;;;;;2088671;28;20053;-79
2023/08/15 02:51:12;;;;;;;5.88;2.97;;;;;;;;;;2089931;28;20486;-79
2023/08/15 02:52:31;;;;;;;4.82;2.92;;;;;;;;;;2088725;28;20143;-79
2023/08/15 02:53:49;;;;;;;7.38;2.95;;;;;;;;;;2087738;28;20029;-79
2023/08/15 02:55:08;;;;;;;4.13;2.72;;;;;;;;;;2088350;28;20028;-79
2023/08/15 02:56:27;;;;;;;7.40;3.40;;;;;;;;;;2089674;28;20482;-79
2023/08/15 02:57:46;;;;;;;10.18;3.40;;;;;;;;;;2091286;28;20143;-79
2023/08/15 02:59:06;;;;;;;6.47;3.35;;;;;;;;;;2097527;28;20036;-79
2023/08/15 03:00:24;;;;;;;5.50;3.22;;;;;;;;;;2088391;28;20028;-79
2023/08/15 03:01:43;;;;;;;3.65;2.63;;;;;;;;;;2083939;28;20037;-79
2023/08/15 03:03:02;;;;;;;11.48;3.15;;;;;;;;;;2086471;28;20032;-79
2023/08/15 03:04:21;;;;;;;5.68;3.13;;;;;;;;;;2090898;28;20072;-78
2023/08/15 03:05:40;;;;;;;4.45;2.90;;;;;;;;;;2093343;28;20516;-78
2023/08/15 03:06:59;;;;;;;3.85;2.90;;;;;;;;;;2093779;28;20533;-80
2023/08/15 03:08:18;;;;;;;7.57;3.00;;;;;;;;;;2096584;28;20028;-79
2023/08/15 03:09:37;;;;;;;6.05;3.35;;;;;;;;;;2097028;28;20020;-78
2023/08/15 03:10:58;;;;;;;5.20;3.13;;;;;;;;;;2087956;28;20025;-79
2023/08/15 03:12:17;;;;;;;11.75;3.63;;;;;;;;;;2094865;28;20517;-78
2023/08/15 03:13:36;;;;;;;7.32;2.85;;;;;;;;;;2089206;28;20041;-78
2023/08/15 03:14:56;;;;;;;5.82;2.80;;;;;;;;;;2095396;28;20067;-79
2023/08/15 03:16:16;;;;;;;6.75;3.47;;;;;;;;;;2097822;28;20040;-80
2023/08/15 03:17:35;;;;;;;3.58;2.72;;;;;;;;;;2098051;28;20028;-78
2023/08/15 03:18:54;;;;;;;5.32;3.13;;;;;;;;;;2090306;28;20024;-79
2023/08/15 03:20:13;;;;;;;3.33;2.67;;;;;;;;;;2097912;28;20021;-79
2023/08/15 03:21:32;;;;;;;7.05;3.08;;;;;;;;;;2104392;28;20005;-79
2023/08/15 03:22:51;;;;;;;5.38;2.75;;;;;;;;;;2108218;28;20000;-79
2023/08/15 03:24:10;;;;;;;6.35;3.40;;;;;;;;;;2107726;28;20555;-79
2023/08/15 03:25:29;;;;;;;5.57;3.40;;;;;;;;;;2106820;28;20021;-78
2023/08/15 03:26:48;;;;;;;5.70;3.00;;;;;;;;;;2106027;28;20638;-79
2023/08/15 03:28:07;;;;;;;5.60;3.17;;;;;;;;;;2104710;28;20032;-80
2023/08/15 03:29:27;;;;;;;4.45;2.95;;;;;;;;;;2095884;28;20494;-78
2023/08/15 03:30:46;;;;;;;5.97;2.85;;;;;;;;;;2097246;28;20024;-79
2023/08/15 03:32:05;;;;;;;6.15;3.20;;;;;;;;;;2090364;28;20024;-79
2023/08/15 03:33:25;;;;;;;6.05;3.33;;;;;;;;;;2095992;28;20037;-79
2023/08/15 03:34:44;;;;;;;8.10;3.33;;;;;;;;;;2097547;28;20073;-79
2023/08/15 03:36:03;;;;;;;5.68;3.10;;;;;;;;;;2099166;28;20024;-79
2023/08/15 03:37:22;;;;;;;5.57;3.17;;;;;;;;;;2097963;28;20059;-80
2023/08/15 03:38:41;;;;;;;4.25;3.67;;;;;;;;;;2098420;28;20024;-79
2023/08/15 03:40:00;;;;;;;6.30;3.50;;;;;;;;;;2089295;28;20025;-79
2023/08/15 03:41:19;;;;;;;5.43;2.95;;;;;;;;;;2086110;28;20068;-79
2023/08/15 03:42:37;;;;;;;5.00;2.90;;;;;;;;;;2094289;28;20025;-78
2023/08/15 03:43:56;;;;;;;3.80;2.83;;;;;;;;;;2088979;28;20025;-79
2023/08/15 03:45:15;;;;;;;5.72;3.08;;;;;;;;;;2093051;28;20028;-78
2023/08/15 03:46:34;;;;;;;6.40;3.40;;;;;;;;;;2096131;28;20036;-79
2023/08/15 03:47:54;;;;;;;4.68;3.15;;;;;;;;;;2098106;28;20567;-78
2023/08/15 03:49:13;;;;;;;6.05;3.20;;;;;;;;;;2095518;28;20111;-78
2023/08/15 03:50:36;;;;;;;3.45;2.85;;;;;;;;;;2096074;28;20064;-79
2023/08/15 03:51:55;;;;;;;5.80;3.33;;;;;;;;;;2089048;28;20036;-79
2023/08/15 03:53:14;;;;;;;8.55;2.88;;;;;;;;;;2094517;28;20285;-78
2023/08/15 03:54:33;;;;;;;4.55;3.40;;;;;;;;;;2098160;28;20032;-78
2023/08/15 03:55:52;;;;;;;5.60;3.17;;;;;;;;;;2097034;28;20024;-78
2023/08/15 03:57:11;;;;;;;7.75;3.28;;;;;;;;;;2088715;28;20037;-78
2023/08/15 03:58:30;;;;;;;6.45;3.15;;;;;;;;;;2094374;28;20497;-79
2023/08/15 03:59:49;;;;;;;5.03;3.10;;;;;;;;;;2097669;28;20029;-78
2023/08/15 04:01:08;;;;;;;8.55;3.50;;;;;;;;;;2089046;28;20444;-78
2023/08/15 04:02:27;;;;;;;3.30;3.10;;;;;;;;;;2085358;28;20059;-78
2023/08/15 04:03:51;;;;;;;5.93;2.97;;;;;;;;;;2084474;28;20025;-79
2023/08/15 04:05:12;;;;;;;6.55;2.88;;;;;;;;;;2086007;28;20079;-78
2023/08/15 04:06:30;;;;;;;3.92;2.60;;;;;;;;;;2090551;28;20037;-78
2023/08/15 04:07:49;;;;;;;4.55;2.80;;;;;;;;;;2086711;28;20025;-78
2023/08/15 04:09:08;;;;;;;4.07;2.97;;;;;;;;;;2085824;28;20021;-80
2023/08/15 04:10:27;;;;;;;5.57;3.40;;;;;;;;;;2094838;28;20028;-79
2023/08/15 04:11:46;;;;;;;10.23;3.08;;;;;;;;;;2096643;28;20024;-79
2023/08/15 04:13:08;;;;;;;6.53;3.40;;;;;;;;;;2096931;28;20075;-79
2023/08/15 04:14:27;;;;;;;3.83;2.60;;;;;;;;;;2093913;28;20409;-79
2023/08/15 04:15:47;;;;;;;4.78;3.22;;;;;;;;;;2095075;28;20033;-79
2023/08/15 04:17:06;;;;;;;5.55;2.85;;;;;;;;;;2088178;28;20057;-78
2023/08/15 04:18:25;;;;;;;4.65;2.90;;;;;;;;;;2094041;28;20033;-79
2023/08/15 04:19:44;;;;;;;6.28;2.97;;;;;;;;;;2088035;28;20033;-79
2023/08/15 04:21:03;;;;;;;7.38;3.72;;;;;;;;;;2085190;28;20475;-79
2023/08/15 04:22:22;;;;;;;5.97;3.35;;;;;;;;;;2092897;28;20401;-80
2023/08/15 04:23:41;;;;;;;4.38;2.92;;;;;;;;;;2089170;28;20486;-79
2023/08/15 04:25:00;;;;;;;5.07;3.30;;;;;;;;;;2092671;28;20044;-79
2023/08/15 04:26:19;;;;;;;8.00;3.58;;;;;;;;;;2096841;28;20032;-79
2023/08/15 04:27:38;;;;;;;9.15;3.20;;;;;;;;;;2096861;28;20032;-79
2023/08/15 04:28:57;;;;;;;7.05;3.20;;;;;;;;;;2096619;28;20021;-79
2023/08/15 04:30:17;;;;;;;7.57;3.55;;;;;;;;;;2097081;28;20107;-78
2023/08/15 04:31:36;;;;;;;5.15;3.10;;;;;;;;;;2087769;28;20108;-79
2023/08/15 04:32:55;;;;;;;6.93;3.72;;;;;;;;;;2084334;28;20017;-78
2023/08/15 04:34:14;;;;;;;8.05;3.92;;;;;;;;;;2083759;28;20423;-78
2023/08/15 04:35:33;;;;;;;6.07;3.15;;;;;;;;;;2088127;28;20116;-79
2023/08/15 04:36:52;;;;;;;6.25;3.38;;;;;;;;;;2092885;28;20146;-79
2023/08/15 04:38:14;;;;;;;7.20;3.20;;;;;;;;;;2097461;28;20044;-79
2023/08/15 04:39:33;;;;;;;4.43;3.05;;;;;;;;;;2090449;28;20056;-78
2023/08/15 04:40:52;;;;;;;6.53;3.65;;;;;;;;;;2092833;28;20039;-81
2023/08/15 04:42:11;;;;;;;9.38;3.50;;;;;;;;;;2096648;28;20028;-81
2023/08/15 04:43:30;;;;;;;7.32;2.90;;;;;;;;;;2086089;28;20033;-83
2023/08/15 04:44:49;;;;;;;6.50;3.08;;;;;;;;;;2092713;28;20028;-83
2023/08/15 04:46:08;;;;;;;6.55;3.60;;;;;;;;;;2087621;28;20053;-83
2023/08/15 04:47:27;;;;;;;7.55;3.35;;;;;;;;;;2086814;28;20029;-83
2023/08/15 04:48:46;;;;;;;10.48;2.95;;;;;;;;;;2093161;28;20032;-80
2023/08/15 04:50:05;;;;;;;7.75;3.70;;;;;;;;;;2088840;28;20498;-81
2023/08/15 04:51:24;;;;;;;5.88;3.33;;;;;;;;;;2086716;28;20041;-82
2023/08/15 04:52:43;;;;;;;4.15;2.88;;;;;;;;;;2094757;28;20029;-80
2023/08/15 04:54:02;;;;;;;6.75;3.67;;;;;;;;;;2098411;28;20024;-84
2023/08/15 04:55:21;;;;;;;5.63;3.03;;;;;;;;;;2098497;28;20056;-82
2023/08/15 04:56:40;;;;;;;6.07;3.72;;;;;;;;;;2096988;28;20028;-80
2023/08/15 04:57:59;;;;;;;5.28;2.90;;;;;;;;;;2097586;28;20131;-81
2023/08/15 04:59:18;;;;;;;5.30;3.10;;;;;;;;;;2088897;28;20032;-79
2023/08/15 05:00:37;;;;;;;7.68;3.13;;;;;;;;;;2084271;28;20060;-79
2023/08/15 05:01:57;;;;;;;8.77;3.45;;;;;;;;;;2094824;28;20095;-83
2023/08/15 05:03:16;;;;;;;9.82;3.88;;;;;;;;;;2091975;28;20033;-84
2023/08/15 05:04:35;;;;;;;6.78;3.10;;;;;;;;;;2093889;28;20040;-85
2023/08/15 05:05:54;;;;;;;3.47;2.80;;;;;;;;;;2098533;28;20037;-81
2023/08/15 05:07:14;;;;;;;5.00;3.03;;;;;;;;;;2097812;28;20428;-81
2023/08/15 05:08:34;;;;;;;5.88;2.92;;;;;;;;;;2098818;28;20068;-83
2023/08/15 05:09:53;;;;;;;9.25;3.22;;;;;;;;;;2098423;28;20024;-80
2023/08/15 05:11:14;;;;;;;6.45;3.40;;;;;;;;;;2087222;28;21550;-81
2023/08/15 05:12:33;;;;;;;6.20;3.20;;;;;;;;;;2086962;28;20025;-82
2023/08/15 05:13:53;;;;;;;4.72;3.38;;;;;;;;;;2093285;28;20021;-80
2023/08/15 05:15:12;;;;;;;7.07;3.20;;;;;;;;;;2089877;28;20025;-80
2023/08/15 05:16:30;;;;;;;5.97;2.95;;;;;;;;;;2086417;28;20032;-80
2023/08/15 05:17:50;;;;;;;7.80;3.58;;;;;;;;;;2096180;28;20112;-81
2023/08/15 05:19:09;;;;;;;5.57;3.03;;;;;;;;;;2088732;28;20025;-82
2023/08/15 05:20:27;;;;;;;9.10;3.10;;;;;;;;;;2096025;28;20416;-81
2023/08/15 05:21:46;;;;;;;6.05;3.13;;;;;;;;;;2098101;28;20056;-81
2023/08/15 05:23:05;;;;;;;8.30;3.22;;;;;;;;;;2098308;28;20025;-80
2023/08/15 05:24:25;;;;;;;5.88;2.97;;;;;;;;;;2098240;28;20477;-80
2023/08/15 05:25:43;;;;;;;7.68;3.20;;;;;;;;;;2098585;28;20032;-78
2023/08/15 05:27:02;;;;;;;6.05;3.20;;;;;;;;;;2098848;28;20028;-84
2023/08/15 05:28:21;;;;;;;7.07;2.92;;;;;;;;;;2099848;28;20029;-83
2023/08/15 05:29:41;;;;;;;4.00;2.78;;;;;;;;;;2098922;28;20016;-82
2023/08/15 05:31:00;;;;;;;7.13;3.50;;;;;;;;;;2097759;28;20028;-86
2023/08/15 05:32:19;;;;;;;9.93;3.03;;;;;;;;;;2095568;28;20139;-85
2023/08/15 05:33:38;;;;;;;5.35;2.83;;;;;;;;;;2088947;28;20028;-85
2023/08/15 05:34:57;;;;;;;7.22;3.05;;;;;;;;;;2082795;28;20025;-86
2023/08/15 05:36:16;;;;;;;7.20;3.28;;;;;;;;;;2093212;28;20058;-87
2023/08/15 05:37:35;;;;;;;4.35;2.95;;;;;;;;;;2095483;28;20111;-80
2023/08/15 05:38:54;;;;;;;7.32;2.97;;;;;;;;;;2089346;28;20025;-81
2023/08/15 05:40:14;;;;;;;9.70;3.30;;;;;;;;;;2085109;28;20037;-79
2023/08/15 05:41:32;;;;;;;4.82;2.80;;;;;;;;;;2094301;28;20029;-80
2023/08/15 05:42:52;;;;;;;5.53;3.00;;;;;;;;;;2096657;28;20029;-82
2023/08/15 05:44:11;;;;;;;4.72;3.28;;;;;;;;;;2097025;28;20025;-80
2023/08/15 05:45:30;;;;;;;4.60;3.03;;;;;;;;;;2087884;28;20037;-79
2023/08/15 05:46:49;;;;;;;6.47;2.55;;;;;;;;;;2085944;28;20025;-81
2023/08/15 05:48:08;;;;;;;6.55;2.83;;;;;;;;;;2091814;28;20058;-79
2023/08/15 05:49:27;;;;;;;5.85;3.50;;;;;;;;;;2088575;28;20021;-80
2023/08/15 05:50:46;;;;;;;8.75;3.03;;;;;;;;;;2091203;28;20032;-79
2023/08/15 05:52:05;;;;;;;10.30;2.90;;;;;;;;;;2088507;28;20025;-77
2023/08/15 05:53:24;;;;;;;5.60;2.92;;;;;;;;;;2092971;28;20033;-77
2023/08/15 05:54:43;;;;;;;7.95;2.60;;;;;;;;;;2087650;28;20021;-78
2023/08/15 05:56:02;;;;;;;4.90;2.72;;;;;;;;;;2084245;28;20052;-78
2023/08/15 05:57:21;;;;;;;6.03;3.60;;;;;;;;;;2091172;28;20044;-78
2023/08/15 05:58:40;;;;;;;11.05;3.60;;;;;;;;;;2095126;28;20048;-77
2023/08/15 05:59:59;;;;;;;7.20;3.00;;;;;;;;;;2087747;28;20068;-77
2023/08/15 06:01:21;;;;;;;5.97;3.45;;;;;;;;;;2091372;28;20393;-78
2023/08/15 06:02:40;;;;;;;5.97;2.67;;;;;;;;;;2097824;28;20450;-78
2023/08/15 06:03:59;;;;;;;7.30;3.60;;;;;;;;;;2094665;28;20040;-78
2023/08/15 06:05:18;;;;;;;10.32;7.35;;;;;;;;;;2086370;28;20457;-78
2023/08/15 06:06:36;;;;;;;6.15;4.00;;;;;;;;;;2086242;28;20060;-78
2023/08/15 06:07:55;;;;;;;6.65;4.30;;;;;;;;;;2090298;28;20427;-78
2023/08/15 06:09:14;;;;;;;6.95;4.13;;;;;;;;;;2088526;28;20053;-78
2023/08/15 06:10:33;;;;;;;8.05;4.80;;;;;;;;;;2082751;28;20025;-77
2023/08/15 06:11:52;;;;;;;9.07;3.20;;;;;;;;;;2092184;28;20025;-77
2023/08/15 06:13:11;;;;;;;9.52;3.47;;;;;;;;;;2091299;28;20037;-77
2023/08/15 06:14:30;;;;;;;7.18;3.35;;;;;;;;;;2094237;28;20653;-77
2023/08/15 06:15:49;;;;;;;4.32;3.05;;;;;;;;;;2097341;28;20063;-77
2023/08/15 06:17:12;;;;;;;5.55;2.63;;;;;;;;;;2096674;28;20025;-77
2023/08/15 06:18:31;;;;;;;6.75;3.13;;;;;;;;;;2096359;28;20024;-77
2023/08/15 06:19:50;;;;;;;6.55;3.00;;;;;;;;;;2096532;28;20482;-77
2023/08/15 06:21:09;;;;;;;7.60;3.05;;;;;;;;;;2097045;28;20036;-77
2023/08/15 06:22:28;;;;;;;5.30;2.50;;;;;;;;;;2095290;28;20033;-77
2023/08/15 06:23:47;;;;;;;6.32;3.80;;;;;;;;;;2088273;28;20045;-77
2023/08/15 06:25:06;;;;;;;6.78;2.92;;;;;;;;;;2085626;28;20029;-77
2023/08/15 06:26:25;;;;;;;6.10;3.17;;;;;;;;;;2085505;28;20037;-77
2023/08/15 06:27:44;;;;;;;8.88;3.33;;;;;;;;;;2092421;28;20040;-77
2023/08/15 06:29:03;;;;;;;9.20;2.70;;;;;;;;;;2094992;28;20033;-77
2023/08/15 06:30:23;;;;;;;8.45;2.45;;;;;;;;;;2093644;28;20381;-77
2023/08/15 06:31:42;;;;;;;8.52;2.95;;;;;;;;;;2096618;28;20100;-78
2023/08/15 06:33:01;;;;;;;5.70;2.65;;;;;;;;;;2096745;28;20033;-77
2023/08/15 06:34:20;;;;;;;5.60;2.35;;;;;;;;;;2096678;28;20028;-77
2023/08/15 06:35:38;;;;;;;7.03;2.65;;;;;;;;;;2097330;28;20033;-78
2023/08/15 06:36:59;;;;;;;6.63;2.60;;;;;;;;;;2086689;28;20028;-77
2023/08/15 06:38:18;;;;;;;5.75;2.60;;;;;;;;;;2084127;28;20502;-77
2023/08/15 06:39:37;;;;;;;5.75;2.63;;;;;;;;;;2092795;28;20032;-76
2023/08/15 06:40:58;;;;;;;6.55;2.75;;;;;;;;;;2095994;28;20393;-77
2023/08/15 06:42:17;;;;;;;7.50;3.05;;;;;;;;;;2095348;28;20410;-77
2023/08/15 06:43:36;;;;;;;4.70;2.97;;;;;;;;;;2097451;28;20020;-77
2023/08/15 06:45:21;;;;;;;6.25;2.92;;;;;;;;;;2089232;28;20601;-77
2023/08/15 06:46:40;;;;;;;4.80;2.35;;;;;;;;;;2099610;28;20029;-77
2023/08/15 06:47:59;;;;;;;5.63;2.42;;;;;;;;;;2089382;28;20413;-78
2023/08/15 06:49:18;;;;;;;6.72;2.65;;;;;;;;;;2103670;28;20044;-77
2023/08/15 06:50:37;;;;;;;5.65;2.75;;;;;;;;;;2106285;28;20029;-79
2023/08/15 06:51:56;;;;;;;8.60;2.90;;;;;;;;;;2098353;28;20029;-78
2023/08/15 06:53:15;;;;;;;7.47;2.28;;;;;;;;;;2101006;28;20032;-78
2023/08/15 06:54:34;;;;;;;6.25;2.40;;;;;;;;;;2104130;28;20773;-78
2023/08/15 06:55:53;;;;;;;11.30;3.30;;;;;;;;;;2104546;28;20092;-78
2023/08/15 06:57:12;;;;;;;6.95;2.80;;;;;;;;;;2101564;28;20032;-78
2023/08/15 06:58:31;;;;;;;7.57;2.63;;;;;;;;;;2100367;28;20032;-78
2023/08/15 06:59:50;;;;;;;4.72;2.47;;;;;;;;;;2095285;28;20033;-77
2023/08/15 07:01:12;;;;;;;5.60;2.70;;;;;;;;;;2096832;28;20034;-77
2023/08/15 07:02:31;;;;;;;8.93;2.50;;;;;;;;;;2097678;28;20021;-77
2023/08/15 07:03:51;;;;;;;5.40;2.65;;;;;;;;;;2097025;28;20060;-78
2023/08/15 07:05:10;;;;;;;6.80;2.20;;;;;;;;;;2096957;28;20020;-77
2023/08/15 07:06:29;;;;;;;7.57;2.40;;;;;;;;;;2097189;28;20111;-77
2023/08/15 07:07:48;;;;;;;3.83;2.38;;;;;;;;;;2096683;28;20021;-77
2023/08/15 07:09:07;;;;;;;7.38;2.40;;;;;;;;;;2089353;28;20048;-78
2023/08/15 07:10:26;;;;;;;7.70;2.60;;;;;;;;;;2085575;28;20025;-79
2023/08/15 07:11:45;;;;;;;3.53;2.40;;;;;;;;;;2091502;28;20409;-78
2023/08/15 07:13:04;;;;;;;8.35;2.75;;;;;;;;;;2093193;28;20033;-78
2023/08/15 07:14:23;;;;;;;5.90;2.47;;;;;;;;;;2093209;28;20064;-78
2023/08/15 07:15:42;;;;;;;7.95;2.10;;;;;;;;;;2087040;28;20021;-78
2023/08/15 07:17:01;;;;;;;10.38;2.78;;;;;;;;;;2091114;28;20111;-78
2023/08/15 07:18:20;;;;;;;5.20;2.90;;;;;;;;;;2085578;28;20024;-79
2023/08/15 07:19:39;;;;;;;7.97;2.65;;;;;;;;;;2092536;28;20025;-76
2023/08/15 07:20:59;;;;;;;5.03;2.38;;;;;;;;;;2095803;28;20032;-77
2023/08/15 07:22:18;;;;;;;5.40;1.95;;;;;;;;;;2095645;28;20025;-77
2023/08/15 07:23:37;;;;;;;8.38;2.13;;;;;;;;;;2086787;28;20068;-77
2023/08/15 07:24:56;;;;;;;4.55;2.20;;;;;;;;;;2093490;28;20025;-78
2023/08/15 07:26:15;;;;;;;3.78;2.10;;;;;;;;;;2095990;28;20037;-78
2023/08/15 07:27:34;;;;;;;6.35;2.33;;;;;;;;;;2087303;28;20104;-78
2023/08/15 07:28:53;;;;;;;6.63;2.13;;;;;;;;;;2084873;28;20025;-77
2023/08/15 07:30:12;;;;;;;3.88;1.98;;;;;;;;;;2090364;28;20028;-77
2023/08/15 07:31:31;;;;;;;3.10;2.40;;;;;;;;;;2093725;28;20028;-76
2023/08/15 07:32:50;;;;;;;3.15;1.80;;;;;;;;;;2088600;28;20506;-77
2023/08/15 07:34:09;;;;;;;3.88;2.10;;;;;;;;;;2090464;28;20036;-78
2023/08/15 07:35:28;;;;;;;4.60;1.75;;;;;;;;;;2095144;28;20036;-78
2023/08/15 07:36:48;;;;;;;6.50;2.35;;;;;;;;;;2096689;28;20060;-78
2023/08/15 07:38:08;;;;;;;5.55;2.17;;;;;;;;;;2094156;28;20029;-78
2023/08/15 07:39:27;;;;;;;3.25;2.00;;;;;;;;;;2087592;28;20033;-78
2023/08/15 07:40:47;;;;;;;3.47;1.95;;;;;;;;;;2092533;28;20029;-78
2023/08/15 07:42:06;;;;;;;3.53;1.80;;;;;;;;;;2087789;28;20025;-76
2023/08/15 07:43:25;;;;;;;6.50;2.00;;;;;;;;;;2084232;28;20045;-77
2023/08/15 07:44:44;;;;;;;5.20;1.58;;;;;;;;;;2093782;28;20044;-78
2023/08/15 07:46:03;;;;;;;4.93;1.92;;;;;;;;;;2093874;28;20489;-77
2023/08/15 07:47:23;;;;;;;2.47;1.67;;;;;;;;;;2086677;28;20033;-77
2023/08/15 07:48:46;;;;;;;5.10;1.80;;;;;;;;;;2092725;28;20016;-77
2023/08/15 07:50:16;;;;;;;4.35;2.00;;;;;;;;;;2087406;28;20037;-78
2023/08/15 07:51:35;;;;;;;10.40;1.83;;;;;;;;;;2087036;28;20029;-80
2023/08/15 07:52:54;;;;;;;5.00;1.60;;;;;;;;;;2090463;28;20044;-77
2023/08/15 07:54:14;;;;;;;4.20;2.17;;;;;;;;;;2093261;28;20084;-78
2023/08/15 07:55:33;;;;;;;3.40;1.90;;;;;;;;;;2096137;28;20021;-77
2023/08/15 07:56:53;;;;;;;4.60;2.13;;;;;;;;;;2087844;28;20103;-77